createdAt,value
2023-01-30T00:01:44.980Z,99.90
2023-01-30T00:04:13.001Z,99.90
2023-01-30T00:06:41.475Z,99.90
2023-01-30T00:09:11.133Z,99.90
2023-01-30T00:11:37.956Z,99.90
2023-01-30T00:14:04.840Z,99.90
2023-01-30T00:16:31.738Z,99.90
2023-01-30T00:18:58.658Z,99.90
2023-01-30T00:21:25.437Z,99.90
2023-01-30T00:23:52.488Z,99.90
2023-01-30T00:26:20.461Z,99.90
2023-01-30T00:28:47.300Z,99.90
2023-01-30T00:31:14.159Z,99.90
2023-01-30T00:33:41.065Z,99.90
2023-01-30T00:36:08.306Z,99.90
2023-01-30T00:38:35.197Z,99.90
2023-01-30T00:41:02.261Z,99.90
2023-01-30T00:43:48.341Z,99.90
2023-01-30T00:47:09.009Z,99.90
2023-01-30T00:49:37.097Z,99.90
2023-01-30T00:52:04.336Z,99.90
2023-01-30T00:54:31.630Z,99.90
2023-01-30T00:56:58.444Z,99.90
2023-01-30T00:59:25.588Z,99.90
2023-01-30T01:01:52.526Z,99.90
2023-01-30T01:04:19.646Z,99.90
2023-01-30T01:06:46.633Z,99.90
2023-01-30T01:09:13.451Z,99.90
2023-01-30T01:11:40.305Z,99.90
2023-01-30T01:14:07.583Z,99.90
2023-01-30T01:16:35.597Z,99.90
2023-01-30T01:19:02.750Z,99.90
2023-01-30T01:21:29.609Z,99.90
2023-01-30T01:24:00.765Z,99.90
2023-01-30T01:26:28.037Z,99.90
2023-01-30T01:28:56.546Z,99.90
2023-01-30T01:31:24.551Z,99.90
2023-01-30T01:33:51.907Z,99.90
2023-01-30T01:36:42.508Z,99.90
2023-01-30T01:39:06.229Z,99.90
2023-01-30T01:41:33.065Z,99.90
2023-01-30T01:44:09.632Z,99.90
2023-01-30T01:46:44.215Z,99.90
2023-01-30T01:49:25.041Z,99.90
2023-01-30T01:52:13.004Z,99.90
2023-01-30T01:54:45.561Z,99.90
2023-01-30T01:57:18.236Z,99.90
2023-01-30T01:59:55.598Z,99.90
2023-01-30T02:02:22.729Z,99.90
2023-01-30T02:05:05.204Z,99.90
2023-01-30T02:07:35.578Z,99.90
2023-01-30T02:10:02.881Z,99.90
2023-01-30T02:12:30.051Z,99.90
2023-01-30T02:14:59.107Z,99.90
2023-01-30T02:17:26.001Z,99.90
2023-01-30T02:20:12.318Z,99.90
2023-01-30T02:22:57.337Z,99.90
2023-01-30T02:25:36.262Z,99.90
2023-01-30T02:28:31.783Z,99.90
2023-01-30T02:31:16.745Z,99.90
2023-01-30T02:33:57.818Z,99.90
2023-01-30T02:36:52.087Z,99.90
2023-01-30T02:39:53.829Z,99.90
2023-01-30T02:42:49.995Z,99.90
2023-01-30T02:45:26.601Z,99.90
2023-01-30T02:48:07.769Z,99.90
2023-01-30T02:50:44.258Z,99.90
2023-01-30T02:53:12.341Z,99.90
2023-01-30T02:55:42.126Z,99.90
2023-01-30T02:58:09.573Z,99.90
2023-01-30T03:01:07.408Z,99.90
2023-01-30T03:03:40.428Z,99.90
2023-01-30T03:06:12.725Z,99.90
2023-01-30T03:08:48.064Z,99.90
2023-01-30T03:11:15.177Z,99.90
2023-01-30T03:13:52.521Z,99.90
2023-01-30T03:16:31.710Z,99.90
2023-01-30T03:19:01.579Z,99.90
2023-01-30T03:21:28.373Z,99.90
2023-01-30T03:23:55.188Z,99.90
2023-01-30T03:26:27.996Z,99.90
2023-01-30T03:28:55.364Z,99.90
2023-01-30T03:31:22.287Z,99.90
2023-01-30T03:33:49.184Z,99.90
2023-01-30T03:36:16.183Z,99.90
2023-01-30T03:38:43.109Z,99.90
2023-01-30T03:41:10.024Z,99.90
2023-01-30T03:43:36.812Z,99.90
2023-01-30T03:46:03.716Z,99.90
2023-01-30T03:48:30.598Z,99.90
2023-01-30T03:50:57.369Z,99.90
2023-01-30T03:53:24.163Z,99.90
2023-01-30T03:55:50.933Z,99.90
2023-01-30T03:58:17.722Z,99.90
2023-01-30T04:00:44.600Z,99.90
2023-01-30T04:03:11.564Z,99.90
2023-01-30T04:05:38.360Z,99.90
2023-01-30T04:08:05.346Z,99.90
2023-01-30T04:10:32.145Z,99.90
2023-01-30T04:12:58.963Z,99.90
2023-01-30T04:15:25.734Z,99.90
2023-01-30T04:17:52.514Z,99.90
2023-01-30T04:20:20.507Z,99.90
2023-01-30T04:22:47.354Z,99.90
2023-01-30T04:25:14.181Z,99.90
2023-01-30T04:27:40.967Z,99.90
2023-01-30T04:30:08.326Z,99.90
2023-01-30T04:32:35.118Z,99.90
2023-01-30T04:35:01.961Z,99.90
2023-01-30T04:37:28.782Z,99.90
2023-01-30T04:39:55.549Z,99.90
2023-01-30T04:42:22.421Z,99.90
2023-01-30T04:44:49.222Z,99.90
2023-01-30T04:47:16.758Z,99.90
2023-01-30T04:49:43.718Z,99.90
2023-01-30T04:52:10.491Z,99.90
2023-01-30T04:54:37.289Z,99.90
2023-01-30T04:57:04.369Z,99.90
2023-01-30T04:59:31.320Z,99.90
2023-01-30T05:01:58.139Z,99.90
2023-01-30T05:04:25.162Z,99.90
2023-01-30T05:06:51.949Z,99.90
2023-01-30T05:09:18.801Z,99.90
2023-01-30T05:11:45.569Z,99.90
2023-01-30T05:14:12.398Z,99.90
2023-01-30T05:16:39.155Z,99.90
2023-01-30T05:19:05.929Z,99.90
2023-01-30T05:21:32.731Z,99.90
2023-01-30T05:23:59.602Z,99.90
2023-01-30T05:26:26.450Z,99.90
2023-01-30T05:28:54.948Z,99.90
2023-01-30T05:31:21.930Z,99.90
2023-01-30T05:33:50.101Z,99.90
2023-01-30T05:36:19.169Z,99.90
2023-01-30T05:38:46.458Z,99.90
2023-01-30T05:41:15.342Z,99.90
2023-01-30T05:43:42.599Z,99.90
2023-01-30T05:46:12.585Z,99.90
2023-01-30T05:48:40.004Z,99.90
2023-01-30T05:51:07.463Z,99.90
2023-01-30T05:53:35.250Z,99.90
2023-01-30T05:56:05.303Z,99.90
2023-01-30T05:58:33.216Z,99.90
2023-01-30T06:01:05.641Z,99.90
2023-01-30T06:03:32.694Z,99.90
2023-01-30T06:06:01.918Z,99.90
2023-01-30T06:08:29.076Z,99.90
2023-01-30T06:10:59.465Z,99.90
2023-01-30T06:13:26.225Z,99.90
2023-01-30T06:15:53.517Z,99.90
2023-01-30T06:18:20.377Z,99.90
2023-01-30T06:20:49.295Z,99.90
2023-01-30T06:23:16.519Z,99.90
2023-01-30T06:25:45.280Z,99.90
2023-01-30T06:28:13.051Z,99.90
2023-01-30T06:30:40.121Z,99.90
2023-01-30T06:33:07.658Z,99.90
2023-01-30T06:35:34.799Z,99.90
2023-01-30T06:38:01.578Z,99.90
2023-01-30T06:40:28.365Z,99.90
2023-01-30T06:42:55.335Z,99.90
2023-01-30T06:45:22.269Z,99.90
2023-01-30T06:47:54.356Z,99.90
2023-01-30T06:50:25.132Z,99.90
2023-01-30T06:52:53.191Z,99.90
2023-01-30T06:55:22.587Z,99.90
2023-01-30T06:57:49.560Z,99.90
2023-01-30T07:00:20.557Z,99.90
2023-01-30T07:02:47.721Z,99.90
2023-01-30T07:05:14.555Z,99.90
2023-01-30T07:07:41.338Z,99.90
2023-01-30T07:10:09.535Z,99.90
2023-01-30T07:12:37.032Z,99.90
2023-01-30T07:15:05.584Z,99.90
2023-01-30T07:17:32.905Z,99.90
2023-01-30T07:19:59.807Z,99.90
2023-01-30T07:22:26.735Z,99.90
2023-01-30T07:24:53.573Z,99.90
2023-01-30T07:27:20.671Z,99.90
2023-01-30T07:29:47.476Z,99.90
2023-01-30T07:32:18.475Z,99.90
2023-01-30T07:34:45.744Z,99.90
2023-01-30T07:37:12.702Z,99.90
2023-01-30T07:39:39.500Z,99.90
2023-01-30T07:42:06.467Z,99.90
2023-01-30T07:44:34.277Z,99.90
2023-01-30T07:47:01.713Z,99.90
2023-01-30T07:49:28.889Z,99.90
2023-01-30T07:51:55.804Z,99.90
2023-01-30T07:54:22.664Z,99.90
2023-01-30T07:56:49.498Z,99.90
2023-01-30T07:59:16.314Z,99.90
2023-01-30T08:01:43.224Z,99.90
2023-01-30T08:04:10.063Z,99.90
2023-01-30T08:06:39.408Z,99.90
2023-01-30T08:09:07.393Z,99.90
2023-01-30T08:11:35.001Z,99.90
2023-01-30T08:14:02.213Z,99.90
2023-01-30T08:16:29.131Z,99.90
2023-01-30T08:18:55.982Z,99.90
2023-01-30T08:21:22.834Z,99.90
2023-01-30T08:23:49.675Z,99.90
2023-01-30T08:26:16.614Z,99.90
2023-01-30T08:28:43.507Z,99.90
2023-01-30T08:31:13.249Z,99.90
2023-01-30T08:33:41.510Z,99.90
2023-01-30T08:36:08.916Z,99.90
2023-01-30T08:38:37.109Z,99.90
2023-01-30T08:41:08.411Z,99.90
2023-01-30T08:43:35.395Z,99.90
2023-01-30T08:46:02.477Z,99.90
2023-01-30T08:48:36.715Z,99.90
2023-01-30T08:51:06.906Z,99.90
2023-01-30T08:53:33.863Z,98.30
2023-01-30T08:56:00.682Z,97.80
2023-01-30T08:58:27.486Z,97.70
2023-01-30T09:00:54.342Z,95.50
2023-01-30T09:03:21.184Z,93.70
2023-01-30T09:05:48.113Z,94.00
2023-01-30T09:08:14.918Z,96.00
2023-01-30T09:10:41.761Z,95.70
2023-01-30T09:13:11.681Z,94.10
2023-01-30T09:15:41.277Z,92.90
2023-01-30T09:18:08.191Z,90.90
2023-01-30T09:20:35.432Z,86.00
2023-01-30T09:23:02.511Z,81.90
2023-01-30T09:25:29.346Z,77.10
2023-01-30T09:27:56.274Z,74.00
2023-01-30T09:30:23.193Z,72.70
2023-01-30T09:32:50.209Z,70.50
2023-01-30T09:35:17.110Z,68.00
2023-01-30T09:37:51.362Z,65.80
2023-01-30T09:40:22.703Z,67.70
2023-01-30T09:43:08.183Z,71.50
2023-01-30T09:45:55.607Z,73.60
2023-01-30T09:48:43.596Z,75.50
2023-01-30T09:51:36.679Z,77.40
2023-01-30T09:54:16.812Z,80.40
2023-01-30T09:56:43.717Z,81.60
2023-01-30T09:59:23.728Z,81.90
2023-01-30T10:02:01.204Z,83.50
2023-01-30T10:04:40.361Z,85.90
2023-01-30T10:07:20.153Z,88.40
2023-01-30T10:10:11.242Z,87.80
2023-01-30T10:13:08.442Z,86.90
2023-01-30T10:15:46.318Z,83.60
2023-01-30T10:18:45.816Z,85.40
2023-01-30T10:21:18.425Z,83.90
2023-01-30T10:24:09.765Z,79.50
2023-01-30T10:26:36.965Z,75.40
2023-01-30T10:29:15.421Z,75.80
2023-01-30T10:31:54.454Z,73.30
2023-01-30T10:34:28.072Z,70.70
2023-01-30T10:37:02.205Z,70.70
2023-01-30T10:39:55.941Z,71.10
2023-01-30T10:43:17.734Z,72.90
2023-01-30T10:46:01.086Z,74.50
2023-01-30T10:49:19.311Z,75.40
2023-01-30T10:52:20.199Z,78.60
2023-01-30T10:54:50.319Z,83.10
2023-01-30T10:57:17.185Z,86.50
2023-01-30T11:00:05.546Z,90.00
2023-01-30T11:02:47.064Z,91.30
2023-01-30T11:05:18.535Z,91.90
2023-01-30T11:07:47.672Z,92.90
2023-01-30T11:10:32.654Z,94.40
2023-01-30T11:13:18.306Z,95.00
2023-01-30T11:15:47.856Z,96.50
2023-01-30T11:19:05.235Z,98.30
2023-01-30T11:21:07.819Z,98.70
2023-01-30T11:23:39.985Z,99.80
2023-01-30T11:26:11.630Z,99.90
2023-01-30T11:28:45.198Z,99.90
2023-01-30T11:31:40.835Z,99.90
2023-01-30T11:34:17.301Z,99.90
2023-01-30T11:36:47.185Z,99.90
2023-01-30T11:39:18.730Z,99.90
2023-01-30T11:41:48.552Z,99.90
2023-01-30T11:44:15.407Z,99.90
2023-01-30T11:46:43.429Z,99.90
2023-01-30T11:49:47.057Z,99.90
2023-01-30T11:52:05.362Z,99.90
2023-01-30T11:54:45.240Z,99.90
2023-01-30T11:57:17.576Z,99.90
2023-01-30T12:00:06.603Z,99.90
2023-01-30T12:02:37.941Z,99.90
2023-01-30T12:05:16.932Z,99.90
2023-01-30T12:07:46.878Z,99.90
2023-01-30T12:10:30.533Z,99.90
2023-01-30T12:13:02.649Z,99.90
2023-01-30T12:15:35.210Z,99.90
2023-01-30T12:18:18.639Z,99.90
2023-01-30T12:21:04.198Z,99.90
2023-01-30T12:23:40.238Z,99.90
2023-01-30T12:26:20.877Z,99.90
2023-01-30T12:29:08.003Z,99.90
2023-01-30T12:31:40.793Z,99.90
2023-01-30T12:34:10.205Z,99.90
2023-01-30T12:36:47.771Z,99.90
2023-01-30T12:39:31.652Z,99.90
2023-01-30T12:42:25.848Z,99.90
2023-01-30T12:45:01.685Z,99.90
2023-01-30T12:47:59.199Z,99.90
2023-01-30T12:50:52.057Z,99.90
2023-01-30T12:53:31.649Z,99.90
2023-01-30T12:56:13.309Z,99.90
2023-01-30T12:59:09.825Z,99.90
2023-01-30T13:02:06.966Z,99.90
2023-01-30T13:04:56.669Z,99.90
2023-01-30T13:08:01.963Z,99.90
2023-01-30T13:10:38.974Z,99.90
2023-01-30T13:13:45.944Z,99.90
2023-01-30T13:16:15.415Z,99.90
2023-01-30T13:18:54.708Z,99.90
2023-01-30T13:21:40.993Z,99.90
2023-01-30T13:24:13.863Z,99.90
2023-01-30T13:26:43.505Z,99.90
2023-01-30T13:29:43.315Z,99.90
2023-01-30T13:32:43.379Z,99.90
2023-01-30T13:35:33.303Z,99.90
2023-01-30T13:38:03.051Z,99.90
2023-01-30T13:40:38.648Z,99.90
2023-01-30T13:43:22.514Z,99.90
2023-01-30T13:45:51.754Z,99.90
2023-01-30T13:48:31.831Z,99.90
2023-01-30T13:51:12.265Z,99.90
2023-01-30T13:54:29.135Z,99.90
2023-01-30T13:57:28.630Z,99.90
2023-01-30T14:00:17.491Z,99.90
2023-01-30T14:03:24.161Z,99.90
2023-01-30T14:06:01.191Z,99.90
2023-01-30T14:08:38.596Z,99.90
2023-01-30T14:11:16.363Z,99.90
2023-01-30T14:13:53.426Z,99.90
2023-01-30T14:16:20.377Z,99.90
2023-01-30T14:18:47.261Z,99.90
2023-01-30T14:21:32.351Z,99.90
2023-01-30T14:24:04.318Z,99.90
2023-01-30T14:26:52.210Z,99.90
2023-01-30T14:29:37.963Z,99.90
2023-01-30T14:32:19.030Z,99.90
2023-01-30T14:34:48.608Z,99.90
2023-01-30T14:37:42.167Z,99.90
2023-01-30T14:40:31.160Z,99.90
2023-01-30T14:43:13.326Z,99.90
2023-01-30T14:46:00.897Z,99.90
2023-01-30T14:48:53.576Z,99.90
2023-01-30T14:51:35.773Z,99.90
2023-01-30T14:54:06.588Z,99.90
2023-01-30T14:56:44.937Z,99.90
2023-01-30T14:59:17.881Z,99.90
2023-01-30T15:02:14.307Z,99.90
2023-01-30T15:05:06.470Z,99.90
2023-01-30T15:07:51.972Z,99.90
2023-01-30T15:10:57.282Z,99.90
2023-01-30T15:13:48.748Z,99.90
2023-01-30T15:16:18.741Z,99.90
2023-01-30T15:19:17.858Z,99.90
2023-01-30T15:22:05.968Z,99.90
2023-01-30T15:24:38.729Z,99.90
2023-01-30T15:27:20.624Z,99.90
2023-01-30T15:29:50.542Z,99.90
2023-01-30T15:32:22.736Z,99.90
2023-01-30T15:34:55.622Z,99.90
2023-01-30T15:37:49.784Z,99.90
2023-01-30T15:40:17.062Z,99.90
2023-01-30T15:43:08.201Z,99.90
2023-01-30T15:46:06.172Z,99.90
2023-01-30T15:49:00.687Z,99.90
2023-01-30T15:51:29.497Z,99.90
2023-01-30T15:53:58.334Z,99.90
2023-01-30T15:56:31.460Z,99.90
2023-01-30T15:59:01.684Z,99.90
2023-01-30T16:01:28.887Z,99.90
2023-01-30T16:03:57.965Z,99.90
2023-01-30T16:06:38.050Z,99.90
2023-01-30T16:09:20.305Z,99.90
2023-01-30T16:11:48.112Z,99.90
2023-01-30T16:14:20.523Z,99.90
2023-01-30T16:16:59.001Z,99.90
2023-01-30T16:19:32.138Z,99.90
2023-01-30T16:22:05.393Z,99.90
2023-01-30T16:24:37.287Z,99.90
2023-01-30T16:27:08.614Z,99.90
2023-01-30T16:29:51.070Z,99.90
2023-01-30T16:32:19.763Z,99.90
2023-01-30T16:34:46.682Z,99.90
2023-01-30T16:37:16.492Z,99.90
2023-01-30T16:39:45.717Z,99.90
2023-01-30T16:42:27.835Z,99.90
2023-01-30T16:45:35.823Z,99.90
2023-01-30T16:48:22.856Z,99.90
2023-01-30T16:50:59.504Z,99.90
2023-01-30T16:53:29.533Z,99.90
2023-01-30T16:56:00.726Z,99.90
2023-01-30T16:58:34.471Z,99.90
2023-01-30T17:01:07.579Z,99.90
2023-01-30T17:03:40.750Z,99.90
2023-01-30T17:06:21.359Z,99.90
2023-01-30T17:08:52.260Z,99.90
2023-01-30T17:11:38.331Z,99.90
2023-01-30T17:14:22.279Z,99.90
2023-01-30T17:17:07.549Z,99.90
2023-01-30T17:19:37.992Z,99.90
2023-01-30T17:22:17.823Z,99.90
2023-01-30T17:24:44.615Z,99.90
2023-01-30T17:27:11.446Z,99.90
2023-01-30T17:29:43.159Z,99.90
2023-01-30T17:32:13.319Z,99.90
2023-01-30T17:34:41.369Z,99.90
2023-01-30T17:37:23.146Z,99.90
2023-01-30T17:39:50.148Z,99.90
2023-01-30T17:42:22.271Z,99.90
2023-01-30T17:44:49.670Z,99.90
2023-01-30T17:47:16.443Z,99.90
2023-01-30T17:49:43.338Z,99.90
2023-01-30T17:52:13.789Z,99.90
2023-01-30T17:54:41.308Z,99.90
2023-01-30T17:57:11.784Z,99.90
2023-01-30T17:59:38.587Z,99.90
2023-01-30T18:02:09.249Z,99.90
2023-01-30T18:04:36.193Z,99.90
2023-01-30T18:07:06.374Z,99.90
2023-01-30T18:09:33.264Z,99.90
2023-01-30T18:12:00.130Z,99.90
2023-01-30T18:14:26.971Z,99.90
2023-01-30T18:16:59.956Z,99.90
2023-01-30T18:19:29.057Z,99.90
2023-01-30T18:21:58.253Z,99.90
2023-01-30T18:24:25.132Z,99.90
2023-01-30T18:26:52.012Z,99.90
2023-01-30T18:29:18.893Z,99.90
2023-01-30T18:31:45.935Z,99.90
2023-01-30T18:34:12.954Z,99.90
2023-01-30T18:36:39.832Z,99.90
2023-01-30T18:39:06.648Z,99.90
2023-01-30T18:41:35.248Z,99.90
2023-01-30T18:44:05.583Z,99.90
2023-01-30T18:46:33.054Z,99.90
2023-01-30T18:49:00.335Z,99.90
2023-01-30T18:51:29.638Z,99.90
2023-01-30T18:53:56.829Z,99.90
2023-01-30T18:56:35.058Z,99.90
2023-01-30T18:59:04.276Z,99.90
2023-01-30T19:01:38.762Z,99.90
2023-01-30T19:04:08.229Z,99.90
2023-01-30T19:06:43.274Z,99.90
2023-01-30T19:09:15.417Z,99.90
2023-01-30T19:12:00.663Z,99.90
2023-01-30T19:14:27.432Z,99.90
2023-01-30T19:16:54.625Z,99.90
2023-01-30T19:19:21.940Z,99.90
2023-01-30T19:21:50.576Z,99.90
2023-01-30T19:24:18.277Z,99.90
2023-01-30T19:26:45.309Z,99.90
2023-01-30T19:29:12.158Z,99.90
2023-01-30T19:31:39.170Z,99.90
2023-01-30T19:34:06.360Z,99.90
2023-01-30T19:36:34.816Z,99.90
2023-01-30T19:39:03.631Z,99.90
2023-01-30T19:41:33.144Z,99.90
2023-01-30T19:44:02.150Z,99.90
2023-01-30T19:46:29.450Z,99.90
2023-01-30T19:48:56.585Z,99.90
2023-01-30T19:51:26.092Z,99.90
2023-01-30T19:53:58.451Z,99.90
2023-01-30T19:56:26.377Z,99.90
2023-01-30T19:58:55.301Z,99.90
2023-01-30T20:01:24.120Z,99.90
2023-01-30T20:03:51.231Z,99.90
2023-01-30T20:06:20.721Z,99.90
2023-01-30T20:08:50.209Z,99.90
2023-01-30T20:11:18.671Z,99.90
2023-01-30T20:13:46.392Z,99.90
2023-01-30T20:16:18.561Z,99.90
2023-01-30T20:18:48.155Z,99.90
2023-01-30T20:21:18.146Z,99.90
2023-01-30T20:23:46.142Z,99.90
2023-01-30T20:26:16.040Z,99.90
2023-01-30T20:28:43.197Z,99.90
2023-01-30T20:31:16.224Z,99.90
2023-01-30T20:33:43.481Z,99.90
2023-01-30T20:36:13.533Z,99.90
2023-01-30T20:38:42.127Z,99.90
2023-01-30T20:41:11.994Z,99.90
2023-01-30T20:43:40.735Z,99.90
2023-01-30T20:46:10.577Z,99.90
2023-01-30T20:48:38.767Z,99.90
2023-01-30T20:51:17.257Z,99.90
2023-01-30T20:53:58.116Z,99.90
2023-01-30T20:56:26.913Z,99.90
2023-01-30T20:58:53.703Z,99.90
2023-01-30T21:01:23.707Z,99.90
2023-01-30T21:03:52.901Z,99.90
2023-01-30T21:06:42.820Z,99.90
2023-01-30T21:09:12.870Z,99.90
2023-01-30T21:11:40.374Z,99.90
2023-01-30T21:14:07.513Z,99.90
2023-01-30T21:16:35.539Z,99.90
2023-01-30T21:19:05.499Z,99.90
2023-01-30T21:21:39.196Z,99.90
2023-01-30T21:24:09.478Z,99.90
2023-01-30T21:26:39.364Z,99.90
2023-01-30T21:29:08.406Z,99.90
2023-01-30T21:31:37.524Z,99.90
2023-01-30T21:34:05.140Z,99.90
2023-01-30T21:36:32.080Z,99.90
2023-01-30T21:39:17.671Z,99.90
2023-01-30T21:41:52.170Z,99.90
2023-01-30T21:44:20.328Z,99.90
2023-01-30T21:46:48.610Z,99.90
2023-01-30T21:49:16.990Z,99.90
2023-01-30T21:51:45.451Z,99.90
2023-01-30T21:54:12.898Z,99.90
2023-01-30T21:56:40.268Z,99.90
2023-01-30T21:59:07.231Z,99.90
2023-01-30T22:01:35.608Z,99.90
2023-01-30T22:04:09.285Z,99.90
2023-01-30T22:06:37.883Z,99.90
2023-01-30T22:09:05.732Z,99.90
2023-01-30T22:11:32.589Z,99.90
2023-01-30T22:13:59.386Z,99.90
2023-01-30T22:16:28.604Z,99.90
2023-01-30T22:19:01.125Z,99.90
2023-01-30T22:21:31.646Z,99.90
2023-01-30T22:23:58.531Z,99.90
2023-01-30T22:26:26.320Z,99.90
2023-01-30T22:28:57.416Z,99.90
2023-01-30T22:31:25.792Z,99.90
2023-01-30T22:33:55.014Z,99.90
2023-01-30T22:36:28.044Z,99.90
2023-01-30T22:38:55.717Z,99.90
2023-01-30T22:41:24.681Z,99.90
2023-01-30T22:43:56.447Z,99.90
2023-01-30T22:46:25.594Z,99.90
2023-01-30T22:48:53.357Z,99.90
2023-01-30T22:51:25.517Z,99.90
2023-01-30T22:53:58.411Z,99.90
2023-01-30T22:56:27.963Z,99.90
2023-01-30T22:58:55.235Z,99.90
2023-01-30T23:01:29.849Z,99.90
2023-01-30T23:03:59.708Z,99.90
2023-01-30T23:06:27.757Z,99.90
2023-01-30T23:08:55.527Z,99.90
2023-01-30T23:11:28.567Z,99.90
2023-01-30T23:13:57.779Z,99.90
2023-01-30T23:16:27.738Z,99.90
2023-01-30T23:19:03.495Z,99.90
2023-01-30T23:21:37.128Z,99.90
2023-01-30T23:24:07.600Z,99.90
2023-01-30T23:26:37.229Z,99.90
2023-01-30T23:29:09.677Z,99.90
2023-01-30T23:31:36.860Z,99.90
2023-01-30T23:34:06.303Z,99.90
2023-01-30T23:36:33.732Z,99.90
2023-01-30T23:39:01.635Z,99.90
2023-01-30T23:41:31.151Z,99.90
2023-01-30T23:43:59.359Z,99.90
2023-01-30T23:46:35.187Z,99.90
2023-01-30T23:49:07.844Z,99.90
2023-01-30T23:51:37.973Z,99.90
2023-01-30T23:54:05.894Z,99.90
2023-01-30T23:56:35.550Z,99.90
2023-01-30T23:59:03.615Z,99.90
